Time;durP1;ratioP1;P1;durP2;ratioP2;P2;SDS_P1;SDS_P2;PMS_P1;PMS_P2;Temp;Humidity;BMP_temperature;BMP_pressure;BME280_temperature;BME280_humidity;BME280_pressure;Samples;Min_cycle;Max_cycle;Signal;HPM_P1;HPM_P2
2023/11/15 00:00:29;;;;;;;24.37;9.50;;;;;;;;;;4988299;28;20024;-83
2023/11/15 00:02:56;;;;;;;24.37;9.33;;;;;;;;;;4988091;28;20063;-83
2023/11/15 00:05:22;;;;;;;26.97;9.83;;;;;;;;;;4990693;28;20029;-82
2023/11/15 00:07:48;;;;;;;23.03;8.67;;;;;;;;;;4978971;29;20031;-80
2023/11/15 00:10:17;;;;;;;24.67;9.03;;;;;;;;;;4980758;28;20082;-80
2023/11/15 00:12:45;;;;;;;21.47;8.07;;;;;;;;;;4980446;28;20034;-83
2023/11/15 00:15:14;;;;;;;24.60;7.93;;;;;;;;;;4973527;28;20011;-82
2023/11/15 00:17:42;;;;;;;29.23;8.00;;;;;;;;;;4971254;28;20028;-78
2023/11/15 00:20:25;;;;;;;26.10;8.40;;;;;;;;;;4971561;28;20023;-78
2023/11/15 00:22:54;;;;;;;22.83;7.57;;;;;;;;;;4988864;28;20041;-77
2023/11/15 00:25:22;;;;;;;33.97;9.27;;;;;;;;;;4986090;28;20031;-78
2023/11/15 00:27:50;;;;;;;29.77;9.93;;;;;;;;;;4985452;28;20102;-80
2023/11/15 00:30:18;;;;;;;25.53;7.87;;;;;;;;;;4977484;28;20046;-76
2023/11/15 00:32:48;;;;;;;30.70;8.57;;;;;;;;;;4982241;28;20073;-78
2023/11/15 00:35:23;;;;;;;23.87;7.40;;;;;;;;;;4980683;28;20070;-77
2023/11/15 00:37:49;;;;;;;20.73;7.57;;;;;;;;;;4979897;28;20044;-78
2023/11/15 00:40:35;;;;;;;35.07;8.07;;;;;;;;;;4991216;28;20035;-78
2023/11/15 00:43:03;;;;;;;15.63;6.57;;;;;;;;;;4978872;28;20098;-77
2023/11/15 00:45:39;;;;;;;18.37;5.80;;;;;;;;;;4980166;28;20026;-77
2023/11/15 00:48:24;;;;;;;25.63;6.43;;;;;;;;;;4994344;28;20410;-78
2023/11/15 00:50:51;;;;;;;19.27;5.63;;;;;;;;;;4987182;28;20038;-79
2023/11/15 00:53:17;;;;;;;26.67;6.17;;;;;;;;;;4988800;28;20107;-77
2023/11/15 00:55:45;;;;;;;31.10;6.20;;;;;;;;;;4971366;28;20083;-76
2023/11/15 00:58:14;;;;;;;24.63;7.10;;;;;;;;;;4966606;28;20019;-79
2023/11/15 01:00:45;;;;;;;21.40;5.53;;;;;;;;;;4972703;28;20038;-80
2023/11/15 01:03:37;;;;;;;19.00;5.40;;;;;;;;;;4986846;28;20031;-77
2023/11/15 01:06:21;;;;;;;20.87;5.60;;;;;;;;;;4973419;28;20047;-78
2023/11/15 01:08:47;;;;;;;15.60;5.53;;;;;;;;;;4987849;28;20051;-79
2023/11/15 01:11:16;;;;;;;19.20;5.27;;;;;;;;;;4974377;28;20083;-77
2023/11/15 01:13:42;;;;;;;21.30;4.93;;;;;;;;;;4975809;28;20034;-77
2023/11/15 01:16:08;;;;;;;22.40;4.70;;;;;;;;;;4971842;28;20019;-78
2023/11/15 01:18:34;;;;;;;22.20;5.13;;;;;;;;;;4987426;28;20087;-78
2023/11/15 01:21:03;;;;;;;12.73;4.70;;;;;;;;;;4988279;28;20038;-78
2023/11/15 01:23:29;;;;;;;21.63;5.10;;;;;;;;;;4986406;28;20031;-76
2023/11/15 01:25:55;;;;;;;23.57;5.30;;;;;;;;;;4986869;28;20055;-78
2023/11/15 01:28:22;;;;;;;25.97;5.13;;;;;;;;;;4974135;28;20036;-78
2023/11/15 01:30:51;;;;;;;17.27;4.77;;;;;;;;;;4989724;28;20119;-77
2023/11/15 01:33:19;;;;;;;13.43;4.83;;;;;;;;;;4988540;28;20032;-78
2023/11/15 01:35:49;;;;;;;25.73;5.40;;;;;;;;;;4973804;28;20042;-78
2023/11/15 01:38:16;;;;;;;16.30;4.23;;;;;;;;;;4974702;28;20035;-77
2023/11/15 01:40:43;;;;;;;13.43;5.03;;;;;;;;;;4988593;28;20026;-76
2023/11/15 01:43:10;;;;;;;17.90;5.27;;;;;;;;;;4987684;28;20042;-78
2023/11/15 01:45:36;;;;;;;25.20;5.67;;;;;;;;;;4975087;28;20027;-76
2023/11/15 01:48:02;;;;;;;16.93;5.40;;;;;;;;;;4969732;28;20035;-78
2023/11/15 01:50:28;;;;;;;15.07;5.37;;;;;;;;;;4986644;28;20048;-77
2023/11/15 01:53:00;;;;;;;17.60;4.77;;;;;;;;;;4986413;28;20046;-79
2023/11/15 01:55:29;;;;;;;20.73;4.68;;;;;;;;;;4974523;28;20058;-78
2023/11/15 01:57:56;;;;;;;13.47;4.07;;;;;;;;;;4973885;28;20044;-79
2023/11/15 02:00:23;;;;;;;20.77;4.30;;;;;;;;;;4987832;28;20040;-79
2023/11/15 02:02:54;;;;;;;15.57;4.53;;;;;;;;;;4975419;28;20020;-78
2023/11/15 02:05:24;;;;;;;13.27;4.50;;;;;;;;;;4987476;28;20047;-78
2023/11/15 02:07:53;;;;;;;14.40;4.03;;;;;;;;;;4974903;28;20043;-79
2023/11/15 02:10:19;;;;;;;16.43;4.37;;;;;;;;;;4974099;28;20038;-78
2023/11/15 02:12:52;;;;;;;16.13;5.57;;;;;;;;;;4986040;28;20044;-78
2023/11/15 02:15:21;;;;;;;19.37;4.67;;;;;;;;;;4988498;28;20090;-79
2023/11/15 02:17:48;;;;;;;16.13;4.67;;;;;;;;;;4986618;28;20026;-78
2023/11/15 02:20:25;;;;;;;17.07;5.27;;;;;;;;;;4987948;28;20023;-78
2023/11/15 02:22:51;;;;;;;15.73;4.73;;;;;;;;;;4951898;28;20040;-79
2023/11/15 02:25:21;;;;;;;14.17;4.67;;;;;;;;;;4953233;28;20063;-78
2023/11/15 02:27:52;;;;;;;13.03;4.77;;;;;;;;;;4953379;28;20031;-78
2023/11/15 02:30:21;;;;;;;16.23;4.50;;;;;;;;;;4953658;28;20067;-78
2023/11/15 02:32:51;;;;;;;17.73;4.77;;;;;;;;;;4952438;28;20044;-77
2023/11/15 02:35:20;;;;;;;29.90;5.70;;;;;;;;;;4950498;28;20046;-78
2023/11/15 02:37:46;;;;;;;23.67;5.73;;;;;;;;;;4953557;28;20028;-78
2023/11/15 02:40:15;;;;;;;15.50;4.43;;;;;;;;;;4940531;28;21356;-77
2023/11/15 02:42:42;;;;;;;19.13;4.73;;;;;;;;;;4952490;28;20024;-77
2023/11/15 02:45:12;;;;;;;19.27;4.10;;;;;;;;;;4953042;28;20044;-78
2023/11/15 02:47:38;;;;;;;23.07;4.70;;;;;;;;;;4972076;28;20091;-79
2023/11/15 02:55:22;;;;;;;11.83;3.47;;;;;;;;;;4977693;28;20079;-79
2023/11/15 02:57:51;;;;;;;11.07;3.90;;;;;;;;;;4973504;28;20019;-78
2023/11/15 03:00:19;;;;;;;14.90;3.23;;;;;;;;;;5010716;23;20019;-80
2023/11/15 03:02:45;;;;;;;19.17;4.10;;;;;;;;;;4990066;28;20026;-79
2023/11/15 03:05:11;;;;;;;10.63;4.03;;;;;;;;;;4991790;28;20027;-79
2023/11/15 03:07:37;;;;;;;12.07;3.77;;;;;;;;;;5015292;28;20038;-80
2023/11/15 03:10:04;;;;;;;10.37;2.53;;;;;;;;;;4997707;28;20043;-79
2023/11/15 03:12:36;;;;;;;15.87;3.33;;;;;;;;;;4997648;28;20073;-78
2023/11/15 03:15:28;;;;;;;13.90;3.08;;;;;;;;;;4990487;28;20023;-80
2023/11/15 03:17:57;;;;;;;13.33;3.53;;;;;;;;;;4997461;28;20023;-79
2023/11/15 03:20:23;;;;;;;17.17;3.20;;;;;;;;;;4989268;28;20026;-80
2023/11/15 03:22:52;;;;;;;11.67;3.50;;;;;;;;;;5009892;28;20059;-78
2023/11/15 03:25:23;;;;;;;9.03;3.00;;;;;;;;;;4988550;28;20042;-79
2023/11/15 03:27:50;;;;;;;12.23;3.20;;;;;;;;;;4997834;28;20029;-80
2023/11/15 03:30:36;;;;;;;8.00;2.83;;;;;;;;;;4996763;28;20007;-79
2023/11/15 03:33:04;;;;;;;13.67;3.83;;;;;;;;;;4993252;28;20036;-79
2023/11/15 03:35:38;;;;;;;18.27;4.10;;;;;;;;;;4997535;28;20018;-78
2023/11/15 03:38:07;;;;;;;13.80;3.23;;;;;;;;;;5014941;28;20019;-78
2023/11/15 03:40:34;;;;;;;12.63;3.03;;;;;;;;;;5002567;28;20018;-78
2023/11/15 03:43:07;;;;;;;16.90;3.43;;;;;;;;;;5001189;28;20054;-79
2023/11/15 03:45:35;;;;;;;15.33;3.10;;;;;;;;;;5013270;28;20031;-79
2023/11/15 03:48:05;;;;;;;16.80;2.90;;;;;;;;;;5001080;28;20019;-79
2023/11/15 03:50:31;;;;;;;13.00;2.93;;;;;;;;;;5017246;28;20007;-79
2023/11/15 03:52:59;;;;;;;11.10;2.63;;;;;;;;;;5005376;28;20019;-79
2023/11/15 03:55:25;;;;;;;14.60;3.47;;;;;;;;;;5000769;28;20030;-79
2023/11/15 03:57:55;;;;;;;15.17;3.43;;;;;;;;;;4996364;28;20084;-79
2023/11/15 04:00:21;;;;;;;16.37;3.57;;;;;;;;;;5000719;28;20038;-78
2023/11/15 04:02:47;;;;;;;17.53;2.80;;;;;;;;;;5018470;28;20034;-78
2023/11/15 04:05:20;;;;;;;18.20;3.40;;;;;;;;;;5017258;28;20047;-78
2023/11/15 04:07:46;;;;;;;19.23;3.50;;;;;;;;;;5000649;28;20027;-78
2023/11/15 04:10:20;;;;;;;19.23;3.27;;;;;;;;;;4999628;28;20229;-78
2023/11/15 04:12:46;;;;;;;13.70;2.87;;;;;;;;;;5000628;28;20062;-78
2023/11/15 04:15:15;;;;;;;14.57;3.70;;;;;;;;;;4997070;28;20019;-78
2023/11/15 04:17:41;;;;;;;13.37;3.07;;;;;;;;;;5004421;28;20079;-79
2023/11/15 04:20:15;;;;;;;11.23;2.47;;;;;;;;;;5000655;28;20007;-78
2023/11/15 04:22:41;;;;;;;13.60;3.23;;;;;;;;;;5000356;28;20023;-78
2023/11/15 04:25:08;;;;;;;16.47;3.47;;;;;;;;;;4992107;28;20027;-78
2023/11/15 04:27:36;;;;;;;21.13;3.50;;;;;;;;;;5004630;28;20018;-79
2023/11/15 04:30:07;;;;;;;16.57;4.27;;;;;;;;;;5000290;28;20030;-78
2023/11/15 04:32:35;;;;;;;21.27;3.03;;;;;;;;;;5002440;28;20026;-78
2023/11/15 04:35:02;;;;;;;12.70;2.83;;;;;;;;;;5000214;28;20034;-78
2023/11/15 04:37:29;;;;;;;14.80;3.80;;;;;;;;;;5009037;28;20021;-78
2023/11/15 04:40:06;;;;;;;11.80;2.60;;;;;;;;;;5000019;28;20029;-79
2023/11/15 04:42:37;;;;;;;15.30;3.47;;;;;;;;;;5119681;23;20054;-78
2023/11/15 04:45:04;;;;;;;20.07;3.67;;;;;;;;;;4995394;28;20023;-77
2023/11/15 04:47:35;;;;;;;12.63;3.03;;;;;;;;;;4994419;28;20020;-78
2023/11/15 04:50:04;;;;;;;21.03;4.03;;;;;;;;;;5017310;28;20023;-78
2023/11/15 04:52:30;;;;;;;12.27;2.93;;;;;;;;;;5001680;28;20070;-78
2023/11/15 04:54:56;;;;;;;16.93;4.40;;;;;;;;;;4998651;28;20023;-78
2023/11/15 04:57:25;;;;;;;13.03;2.87;;;;;;;;;;4986445;28;20022;-78
2023/11/15 04:59:55;;;;;;;17.60;3.93;;;;;;;;;;4999637;28;20034;-78
2023/11/15 05:02:22;;;;;;;13.27;2.63;;;;;;;;;;5000751;28;20030;-77
2023/11/15 05:04:48;;;;;;;18.13;3.27;;;;;;;;;;4996469;28;20139;-78
2023/11/15 05:07:15;;;;;;;16.67;4.17;;;;;;;;;;4999504;28;20041;-79
2023/11/15 05:09:41;;;;;;;13.27;3.17;;;;;;;;;;4999945;28;20086;-78
2023/11/15 05:12:10;;;;;;;16.47;4.27;;;;;;;;;;5113139;23;20035;-78
2023/11/15 05:14:36;;;;;;;14.80;3.13;;;;;;;;;;4999530;28;20034;-78
2023/11/15 05:17:05;;;;;;;13.90;2.80;;;;;;;;;;4996278;28;20019;-78
2023/11/15 05:19:34;;;;;;;18.83;3.63;;;;;;;;;;5006655;28;20047;-78
2023/11/15 05:22:00;;;;;;;13.90;3.13;;;;;;;;;;5004973;28;20015;-78
2023/11/15 05:24:29;;;;;;;17.33;3.97;;;;;;;;;;5003503;28;20027;-77
2023/11/15 05:26:58;;;;;;;14.53;2.90;;;;;;;;;;4997596;28;20035;-77
2023/11/15 05:29:29;;;;;;;16.00;3.57;;;;;;;;;;4997328;28;20038;-78
2023/11/15 05:31:58;;;;;;;15.97;3.27;;;;;;;;;;5006121;28;20025;-78
2023/11/15 05:34:27;;;;;;;19.67;2.83;;;;;;;;;;4995597;28;20019;-78
2023/11/15 05:37:01;;;;;;;17.37;3.50;;;;;;;;;;5016659;23;20046;-78
2023/11/15 05:39:29;;;;;;;14.80;2.50;;;;;;;;;;4993675;28;20019;-78
2023/11/15 05:42:03;;;;;;;17.77;2.77;;;;;;;;;;4994821;28;20015;-77
2023/11/15 05:44:46;;;;;;;20.47;3.60;;;;;;;;;;4998724;28;20030;-78
2023/11/15 05:47:17;;;;;;;23.87;3.90;;;;;;;;;;4992587;28;20030;-77
2023/11/15 05:49:44;;;;;;;21.90;3.80;;;;;;;;;;4998954;28;20079;-77
2023/11/15 05:52:17;;;;;;;14.43;3.70;;;;;;;;;;5242799;23;20029;-77
2023/11/15 05:54:53;;;;;;;14.93;3.17;;;;;;;;;;4994654;28;20019;-79
2023/11/15 05:57:29;;;;;;;15.57;2.73;;;;;;;;;;4992319;28;20012;-77
2023/11/15 06:00:05;;;;;;;20.33;3.20;;;;;;;;;;4984569;28;20027;-77
2023/11/15 06:02:34;;;;;;;15.00;3.33;;;;;;;;;;4981175;28;20012;-78
2023/11/15 06:05:01;;;;;;;10.30;2.67;;;;;;;;;;4979125;28;20027;-77
2023/11/15 06:07:29;;;;;;;19.70;3.40;;;;;;;;;;4979248;28;20065;-78
2023/11/15 06:10:09;;;;;;;16.87;4.30;;;;;;;;;;4995023;28;20071;-78
2023/11/15 06:12:54;;;;;;;20.00;3.47;;;;;;;;;;4979051;28;20011;-77
2023/11/15 06:15:20;;;;;;;12.30;3.40;;;;;;;;;;4979024;28;20015;-78
2023/11/15 06:18:13;;;;;;;16.03;3.60;;;;;;;;;;4993635;28;20015;-77
2023/11/15 06:20:49;;;;;;;16.73;3.07;;;;;;;;;;5066980;23;20043;-77
2023/11/15 06:23:15;;;;;;;16.90;3.67;;;;;;;;;;4993230;28;20046;-78
2023/11/15 06:25:41;;;;;;;16.20;3.47;;;;;;;;;;4989632;28;20047;-78
2023/11/15 06:28:11;;;;;;;15.17;3.80;;;;;;;;;;4992811;28;20030;-77
2023/11/15 06:30:56;;;;;;;21.80;4.17;;;;;;;;;;4990627;28;20043;-77
2023/11/15 06:33:25;;;;;;;15.87;3.60;;;;;;;;;;5005683;28;20022;-76
2023/11/15 06:45:28;;;;;;;17.23;3.83;;;;;;;;;;5060509;23;20035;-77
2023/11/15 06:48:12;;;;;;;17.67;4.32;;;;;;;;;;4986132;28;20086;-78
2023/11/15 06:51:08;;;;;;;13.17;3.53;;;;;;;;;;4987635;28;20038;-77
2023/11/15 06:56:29;;;;;;;21.50;4.87;;;;;;;;;;4986429;28;20027;-77
2023/11/15 07:02:18;;;;;;;12.43;3.03;;;;;;;;;;4987048;28;20050;-78
2023/11/15 07:05:10;;;;;;;17.53;3.97;;;;;;;;;;4988669;28;20058;-78
2023/11/15 07:08:10;;;;;;;12.73;3.67;;;;;;;;;;4967137;28;20047;-78
2023/11/15 07:10:37;;;;;;;18.17;3.87;;;;;;;;;;4987359;28;20039;-78
2023/11/15 07:13:03;;;;;;;23.07;4.60;;;;;;;;;;4991131;28;20211;-77
2023/11/15 07:15:30;;;;;;;17.33;3.40;;;;;;;;;;4991561;28;20046;-77
2023/11/15 07:18:06;;;;;;;;;;;;;;;;;;;;;
2023/11/15 07:20:41;;;;;;;15.87;3.37;;;;;;;;;;4989504;28;20042;-78
2023/11/15 07:23:07;;;;;;;15.50;3.60;;;;;;;;;;5009310;28;20030;-77
2023/11/15 07:25:51;;;;;;;19.73;3.90;;;;;;;;;;4993202;28;20102;-78
2023/11/15 07:28:19;;;;;;;13.60;3.57;;;;;;;;;;4989733;28;20031;-78
2023/11/15 07:30:48;;;;;;;16.23;3.60;;;;;;;;;;4989559;28;20057;-77
2023/11/15 07:33:14;;;;;;;15.37;3.70;;;;;;;;;;4990795;28;20023;-80
2023/11/15 07:35:40;;;;;;;12.63;3.20;;;;;;;;;;4988998;28;20130;-80
2023/11/15 07:38:10;;;;;;;12.33;3.30;;;;;;;;;;4989561;28;20050;-80
2023/11/15 07:40:41;;;;;;;11.73;3.63;;;;;;;;;;4995348;28;20027;-78
2023/11/15 07:43:10;;;;;;;13.52;3.45;;;;;;;;;;4986887;28;20043;-80
2023/11/15 07:45:38;;;;;;;14.67;3.37;;;;;;;;;;4992929;28;20090;-81
2023/11/15 07:48:10;;;;;;;15.53;2.57;;;;;;;;;;4988075;28;20023;-80
2023/11/15 07:50:36;;;;;;;23.80;4.05;;;;;;;;;;4990243;28;20201;-80
2023/11/15 07:53:02;;;;;;;12.77;2.60;;;;;;;;;;4986107;28;20032;-78
2023/11/15 07:55:29;;;;;;;26.10;3.63;;;;;;;;;;4992606;28;20019;-81
2023/11/15 07:57:56;;;;;;;13.50;2.87;;;;;;;;;;4984978;28;20042;-79
2023/11/15 08:00:22;;;;;;;11.70;2.97;;;;;;;;;;4992111;28;20022;-80
2023/11/15 08:02:55;;;;;;;14.17;3.33;;;;;;;;;;4992095;28;20083;-79
2023/11/15 08:05:23;;;;;;;22.00;3.92;;;;;;;;;;4986597;28;20023;-81
2023/11/15 08:07:51;;;;;;;16.77;3.80;;;;;;;;;;4988489;28;20111;-80
2023/11/15 08:10:19;;;;;;;17.90;2.90;;;;;;;;;;4990725;28;20050;-80
2023/11/15 08:12:46;;;;;;;13.17;3.10;;;;;;;;;;4990440;28;20022;-80
2023/11/15 08:15:20;;;;;;;14.90;3.00;;;;;;;;;;4993709;28;20027;-80
2023/11/15 08:17:49;;;;;;;19.27;3.87;;;;;;;;;;4992966;28;20223;-80
2023/11/15 08:20:20;;;;;;;11.90;2.40;;;;;;;;;;4993220;28;20209;-80
2023/11/15 08:22:46;;;;;;;11.60;3.27;;;;;;;;;;4992971;28;20041;-80
2023/11/15 08:25:13;;;;;;;15.33;3.27;;;;;;;;;;4986248;28;20062;-79
2023/11/15 08:27:40;;;;;;;17.87;3.33;;;;;;;;;;5020248;23;20035;-78
2023/11/15 08:30:17;;;;;;;20.43;3.30;;;;;;;;;;4998473;28;20026;-79
2023/11/15 08:32:54;;;;;;;13.87;2.40;;;;;;;;;;4997468;28;20058;-79
2023/11/15 08:35:23;;;;;;;16.33;3.80;;;;;;;;;;5000460;28;20019;-80
2023/11/15 08:37:52;;;;;;;10.43;2.67;;;;;;;;;;5015617;28;20058;-80
2023/11/15 08:40:22;;;;;;;16.10;2.97;;;;;;;;;;5003661;28;20033;-79
2023/11/15 08:42:49;;;;;;;15.20;2.90;;;;;;;;;;4995241;28;20021;-81
2023/11/15 08:45:15;;;;;;;15.27;3.80;;;;;;;;;;5006999;28;20034;-79
2023/11/15 08:47:42;;;;;;;12.40;2.47;;;;;;;;;;5004465;28;20166;-78
2023/11/15 08:50:08;;;;;;;19.43;3.60;;;;;;;;;;4995960;28;20015;-80
2023/11/15 08:52:34;;;;;;;16.50;2.97;;;;;;;;;;4990398;28;20161;-79
2023/11/15 08:55:05;;;;;;;13.53;2.80;;;;;;;;;;5006304;28;20014;-80
2023/11/15 08:57:35;;;;;;;18.13;3.77;;;;;;;;;;5007532;28;20019;-80
2023/11/15 09:00:07;;;;;;;16.97;3.17;;;;;;;;;;5008413;28;20322;-79
2023/11/15 09:02:33;;;;;;;13.30;2.95;;;;;;;;;;4994948;28;20086;-81
2023/11/15 09:05:09;;;;;;;17.77;2.23;;;;;;;;;;4994718;28;20046;-79
2023/11/15 09:07:37;;;;;;;8.87;2.20;;;;;;;;;;5047053;23;20088;-78
2023/11/15 09:10:09;;;;;;;15.97;2.73;;;;;;;;;;4954624;28;20026;-78
2023/11/15 09:12:37;;;;;;;11.97;2.43;;;;;;;;;;4959986;28;20058;-80
2023/11/15 09:15:11;;;;;;;12.13;3.03;;;;;;;;;;5017342;22;20054;-78
2023/11/15 09:17:46;;;;;;;11.63;2.50;;;;;;;;;;4975983;28;20091;-79
2023/11/15 09:20:13;;;;;;;11.23;2.43;;;;;;;;;;4971706;28;20019;-79
2023/11/15 09:22:53;;;;;;;11.13;2.50;;;;;;;;;;4973347;28;20051;-78
2023/11/15 09:25:30;;;;;;;13.47;2.73;;;;;;;;;;4975142;28;20032;-79
2023/11/15 09:28:02;;;;;;;14.27;2.43;;;;;;;;;;4972684;28;20029;-79
2023/11/15 09:30:31;;;;;;;22.25;3.58;;;;;;;;;;4972374;28;20095;-77
2023/11/15 09:33:05;;;;;;;13.87;2.77;;;;;;;;;;4958166;28;20020;-78
2023/11/15 09:35:36;;;;;;;12.43;2.50;;;;;;;;;;4974717;28;20020;-79
2023/11/15 09:38:17;;;;;;;16.45;3.03;;;;;;;;;;4972757;28;20071;-78
2023/11/15 09:40:50;;;;;;;13.23;2.53;;;;;;;;;;4972386;28;20035;-78
2023/11/15 09:43:19;;;;;;;12.70;1.97;;;;;;;;;;4975561;28;20030;-78
2023/11/15 09:45:46;;;;;;;5.97;1.90;;;;;;;;;;4972306;28;20046;-78
2023/11/15 09:48:14;;;;;;;13.63;2.50;;;;;;;;;;4977248;28;20058;-78
2023/11/15 09:50:48;;;;;;;14.67;2.30;;;;;;;;;;4975009;28;20055;-78
2023/11/15 09:53:16;;;;;;;14.77;2.57;;;;;;;;;;4973598;28;20031;-77
2023/11/15 09:55:43;;;;;;;15.20;2.63;;;;;;;;;;4971060;28;20032;-78
2023/11/15 09:58:11;;;;;;;15.03;2.73;;;;;;;;;;4975094;28;20050;-77
2023/11/15 10:00:40;;;;;;;12.23;2.63;;;;;;;;;;4959461;28;20015;-78
2023/11/15 10:03:19;;;;;;;13.07;2.10;;;;;;;;;;4975530;28;20026;-80
2023/11/15 10:05:57;;;;;;;11.90;2.33;;;;;;;;;;4979210;28;20031;-78
2023/11/15 10:08:24;;;;;;;17.43;3.27;;;;;;;;;;4970878;28;20016;-77
2023/11/15 10:11:03;;;;;;;19.40;2.53;;;;;;;;;;4974399;28;20112;-78
2023/11/15 10:13:30;;;;;;;11.30;2.07;;;;;;;;;;4974907;28;20039;-79
2023/11/15 10:16:03;;;;;;;10.83;2.63;;;;;;;;;;4969736;28;20035;-79
2023/11/15 10:18:57;;;;;;;4.37;1.90;;;;;;;;;;4958071;28;20023;-78
2023/11/15 10:34:17;;;;;;;22.70;3.67;;;;;;;;;;4992580;28;20034;-81
2023/11/15 10:36:43;;;;;;;11.47;2.40;;;;;;;;;;4990229;28;20022;-80
2023/11/15 10:39:12;;;;;;;7.17;1.70;;;;;;;;;;4992584;28;20061;-80
2023/11/15 10:50:15;;;;;;;6.40;2.80;;;;;;;;;;4927743;29;20028;-78
2023/11/15 10:52:43;;;;;;;12.43;2.20;;;;;;;;;;4951079;28;20035;-77
2023/11/15 10:55:12;;;;;;;10.33;2.10;;;;;;;;;;4954865;28;20023;-78
2023/11/15 11:08:20;;;;;;;9.23;2.07;;;;;;;;;;5000643;23;20038;-78
2023/11/15 11:10:48;;;;;;;10.03;2.23;;;;;;;;;;4998163;28;20038;-80
2023/11/15 11:13:21;;;;;;;11.43;1.80;;;;;;;;;;4990789;28;20022;-82
2023/11/15 11:15:55;;;;;;;8.23;1.97;;;;;;;;;;4998313;28;20045;-79
2023/11/15 11:18:22;;;;;;;6.83;2.50;;;;;;;;;;4998759;28;20019;-80
2023/11/15 11:24:13;;;;;;;15.37;2.37;;;;;;;;;;4996322;28;20059;-77
2023/11/15 11:26:41;;;;;;;16.20;2.53;;;;;;;;;;4983675;28;20123;-78
2023/11/15 11:29:17;;;;;;;9.23;1.93;;;;;;;;;;4995329;28;20019;-78
2023/11/15 11:32:03;;;;;;;12.70;1.87;;;;;;;;;;4981423;28;20023;-75
2023/11/15 11:34:29;;;;;;;10.83;2.37;;;;;;;;;;4997948;28;20018;-75
2023/11/15 11:37:00;;;;;;;8.60;1.80;;;;;;;;;;4992535;28;20034;-75
2023/11/15 11:39:50;;;;;;;9.37;1.70;;;;;;;;;;4993610;28;20023;-76
2023/11/15 11:42:44;;;;;;;9.47;1.53;;;;;;;;;;4990566;28;20020;-76
2023/11/15 11:45:12;;;;;;;9.67;1.77;;;;;;;;;;4993756;28;20027;-77
2023/11/15 11:47:49;;;;;;;7.00;1.53;;;;;;;;;;5002661;28;20039;-77
2023/11/15 11:50:25;;;;;;;12.87;2.03;;;;;;;;;;5381332;23;20034;-81
2023/11/15 11:52:54;;;;;;;10.63;1.77;;;;;;;;;;5006105;28;20019;-82
2023/11/15 11:55:23;;;;;;;10.73;1.60;;;;;;;;;;5011621;28;20082;-82
2023/11/15 11:57:53;;;;;;;6.73;1.90;;;;;;;;;;5009822;28;20047;-81
2023/11/15 12:00:21;;;;;;;16.27;2.67;;;;;;;;;;5016385;28;20019;-79
2023/11/15 12:02:54;;;;;;;9.93;1.70;;;;;;;;;;4996503;28;20024;-79
2023/11/15 12:05:21;;;;;;;12.07;2.17;;;;;;;;;;4995652;28;20023;-79
2023/11/15 12:07:48;;;;;;;13.17;2.20;;;;;;;;;;5001134;28;20022;-77
2023/11/15 12:10:15;;;;;;;11.10;1.80;;;;;;;;;;5000076;28;20030;-79
2023/11/15 12:12:41;;;;;;;8.47;1.67;;;;;;;;;;5001184;28;20017;-79
2023/11/15 12:15:15;;;;;;;8.90;1.77;;;;;;;;;;4999844;28;20021;-79
2023/11/15 12:17:45;;;;;;;6.23;1.70;;;;;;;;;;4997107;28;20011;-77
2023/11/15 12:20:12;;;;;;;6.97;1.63;;;;;;;;;;4996469;28;20011;-77
2023/11/15 12:22:40;;;;;;;9.40;2.27;;;;;;;;;;5030596;23;20026;-77
2023/11/15 12:25:28;;;;;;;;;;;;;;;;;;;;;
2023/11/15 12:27:54;;;;;;;11.10;1.97;;;;;;;;;;4976751;28;20051;-76
2023/11/15 12:30:20;;;;;;;13.00;2.90;;;;;;;;;;4972163;28;20119;-76
2023/11/15 12:32:46;;;;;;;12.30;3.60;;;;;;;;;;4976793;28;20007;-76
2023/11/15 12:35:17;;;;;;;7.83;2.27;;;;;;;;;;4992400;28;20039;-79
2023/11/15 13:07:09;;;;;;;12.73;2.87;;;;;;;;;;5344837;23;20095;-76
2023/11/15 13:09:36;;;;;;;5.80;1.93;;;;;;;;;;4974183;28;20026;-77
2023/11/15 13:12:21;;;;;;;9.17;2.30;;;;;;;;;;4974722;28;20050;-76
2023/11/15 13:14:49;;;;;;;9.40;2.13;;;;;;;;;;5005860;23;20034;-77
2023/11/15 13:17:19;;;;;;;8.30;1.83;;;;;;;;;;5012054;28;20027;-77
2023/11/15 13:19:47;;;;;;;8.87;1.53;;;;;;;;;;5012232;28;20019;-78
2023/11/15 13:22:15;;;;;;;8.70;1.57;;;;;;;;;;4992820;28;20015;-77
2023/11/15 13:24:48;;;;;;;6.97;1.23;;;;;;;;;;4993468;28;20027;-76
2023/11/15 13:27:17;;;;;;;;;;;;;;;;;;4994435;28;20054;-77
2023/11/15 13:29:48;;;;;;;5.43;1.30;;;;;;;;;;4992223;28;19934;-77
2023/11/15 13:32:14;;;;;;;5.53;1.20;;;;;;;;;;5013447;28;20015;-77
2023/11/15 13:34:43;;;;;;;5.53;1.43;;;;;;;;;;5011166;28;20026;-76
2023/11/15 13:37:09;;;;;;;7.03;1.60;;;;;;;;;;5013186;28;20019;-77
2023/11/15 13:39:38;;;;;;;8.43;1.63;;;;;;;;;;4991138;28;20130;-77
2023/11/15 13:42:07;;;;;;;13.00;1.67;;;;;;;;;;4994314;23;20050;-76
2023/11/15 13:44:36;;;;;;;11.75;1.60;;;;;;;;;;4977058;28;20156;-78
2023/11/15 13:47:02;;;;;;;10.10;1.50;;;;;;;;;;4979421;28;20091;-77
2023/11/15 13:49:30;;;;;;;7.60;1.33;;;;;;;;;;4976141;28;20035;-79
2023/11/15 13:51:57;;;;;;;6.15;1.65;;;;;;;;;;4976422;28;20039;-77
2023/11/15 13:54:25;;;;;;;8.07;1.52;;;;;;;;;;4976121;28;20024;-76
2023/11/15 13:56:51;;;;;;;9.97;1.30;;;;;;;;;;5001345;23;20043;-77
2023/11/15 13:59:19;;;;;;;9.40;1.87;;;;;;;;;;4988547;28;20023;-76
2023/11/15 14:01:48;;;;;;;7.53;1.93;;;;;;;;;;4986187;28;20010;-77
2023/11/15 14:04:19;;;;;;;12.97;2.43;;;;;;;;;;4988650;28;20014;-77
2023/11/15 14:06:46;;;;;;;6.67;1.37;;;;;;;;;;4992126;28;20043;-77
2023/11/15 14:09:15;;;;;;;7.23;1.90;;;;;;;;;;4990489;28;20035;-77
2023/11/15 14:11:42;;;;;;;7.13;1.53;;;;;;;;;;4989746;28;20108;-76
2023/11/15 14:14:11;;;;;;;10.07;1.67;;;;;;;;;;4989991;28;20026;-77
2023/11/15 14:16:37;;;;;;;5.90;1.40;;;;;;;;;;4988546;28;20018;-76
2023/11/15 14:19:09;;;;;;;9.80;1.43;;;;;;;;;;4985331;28;20039;-76
2023/11/15 14:21:36;;;;;;;4.22;1.30;;;;;;;;;;4988435;28;20035;-77
2023/11/15 14:24:02;;;;;;;8.17;1.83;;;;;;;;;;4990578;28;20119;-77
2023/11/15 14:26:32;;;;;;;13.60;2.33;;;;;;;;;;4989126;28;20065;-77
2023/11/15 14:28:58;;;;;;;7.47;1.67;;;;;;;;;;4987290;28;20034;-78
2023/11/15 14:31:26;;;;;;;3.97;1.10;;;;;;;;;;4988051;28;20034;-77
2023/11/15 14:33:52;;;;;;;8.37;1.70;;;;;;;;;;4988758;28;20138;-77
2023/11/15 14:36:20;;;;;;;7.20;1.40;;;;;;;;;;4985131;28;20046;-77
2023/11/15 14:38:48;;;;;;;7.47;1.53;;;;;;;;;;4989329;28;20042;-77
2023/11/15 14:41:15;;;;;;;3.97;1.33;;;;;;;;;;4985983;28;20087;-77
2023/11/15 14:43:45;;;;;;;8.90;1.53;;;;;;;;;;4990943;28;20019;-77
2023/11/15 14:46:25;;;;;;;4.80;1.00;;;;;;;;;;4988945;28;20094;-75
2023/11/15 14:48:53;;;;;;;6.90;1.53;;;;;;;;;;4986497;28;20015;-77
2023/11/15 14:51:20;;;;;;;9.40;1.60;;;;;;;;;;4991561;28;20015;-76
2023/11/15 14:54:00;;;;;;;9.17;1.90;;;;;;;;;;5014770;23;20066;-77
2023/11/15 14:56:32;;;;;;;10.10;1.40;;;;;;;;;;4991646;28;20042;-76
2023/11/15 14:58:58;;;;;;;10.60;1.50;;;;;;;;;;5003536;28;20046;-76
2023/11/15 15:01:27;;;;;;;6.90;1.23;;;;;;;;;;4988908;28;20066;-76
2023/11/15 15:03:53;;;;;;;6.97;1.50;;;;;;;;;;4990538;28;20035;-76
2023/11/15 15:06:21;;;;;;;5.37;1.37;;;;;;;;;;5004229;28;20114;-76
2023/11/15 15:08:47;;;;;;;10.90;1.37;;;;;;;;;;4990331;28;20039;-77
2023/11/15 15:11:13;;;;;;;7.10;2.00;;;;;;;;;;4992487;28;20019;-77
2023/11/15 15:13:39;;;;;;;12.07;1.80;;;;;;;;;;5003215;28;20039;-77
2023/11/15 15:16:13;;;;;;;9.33;1.67;;;;;;;;;;4985888;28;20027;-77
2023/11/15 15:18:39;;;;;;;5.47;1.43;;;;;;;;;;5005019;28;20031;-77
2023/11/15 15:21:07;;;;;;;6.87;1.20;;;;;;;;;;5003647;28;20043;-76
2023/11/15 15:23:33;;;;;;;11.53;2.57;;;;;;;;;;5001469;28;20011;-77
2023/11/15 15:25:59;;;;;;;9.17;1.80;;;;;;;;;;5004019;28;20068;-76
2023/11/15 15:28:28;;;;;;;4.77;1.37;;;;;;;;;;5002875;28;20042;-76
2023/11/15 15:31:12;;;;;;;5.87;1.50;;;;;;;;;;5005956;28;20023;-77
2023/11/15 15:33:48;;;;;;;8.73;2.00;;;;;;;;;;5005136;28;20045;-77
2023/11/15 15:36:14;;;;;;;4.47;1.20;;;;;;;;;;5004612;28;20035;-78
2023/11/15 15:38:42;;;;;;;8.10;1.57;;;;;;;;;;4997063;28;20031;-76
2023/11/15 15:41:11;;;;;;;8.40;1.63;;;;;;;;;;4995681;28;20344;-75
2023/11/15 15:43:37;;;;;;;5.00;1.30;;;;;;;;;;4996784;28;20019;-76
2023/11/15 15:46:24;;;;;;;6.90;1.20;;;;;;;;;;4995494;28;20051;-77
2023/11/15 15:49:23;;;;;;;8.13;1.83;;;;;;;;;;5009320;28;20022;-76
2023/11/15 15:52:15;;;;;;;11.33;2.40;;;;;;;;;;5057536;23;20031;-77
2023/11/15 15:57:58;;;;;;;5.77;1.03;;;;;;;;;;4998598;28;20036;-75
2023/11/15 16:00:50;;;;;;;9.90;2.17;;;;;;;;;;4988943;28;20027;-76
2023/11/15 16:03:29;;;;;;;;;;;;;;;;;;;;;
2023/11/15 16:09:04;;;;;;;8.17;1.60;;;;;;;;;;4995407;28;20031;-77
2023/11/15 16:12:06;;;;;;;4.03;1.10;;;;;;;;;;5343055;22;20042;-77
2023/11/15 16:15:02;;;;;;;3.92;1.10;;;;;;;;;;5013954;28;20054;-76
2023/11/15 16:17:39;;;;;;;10.83;1.53;;;;;;;;;;5027159;28;20022;-76
2023/11/15 16:20:11;;;;;;;6.77;1.13;;;;;;;;;;5006622;28;20027;-75
2023/11/15 16:23:09;;;;;;;7.90;1.60;;;;;;;;;;5015968;28;20022;-76
2023/11/15 16:28:12;;;;;;;5.03;1.27;;;;;;;;;;5482637;23;20049;-76
2023/11/15 16:30:41;;;;;;;7.13;1.50;;;;;;;;;;5012143;28;20038;-76